This is the latest recevied weather packets stored in our database for station/object EA3IK-7. If no packets are shown the sender has not sent any weather packets the latest 10 day(s).
| Time | Temp. | Humidity | Pressure | Rain* | Wind** | Luminosity | Snow |
|---|---|---|---|---|---|---|---|
| 1778169018 | 21.67° C | 59% | 1008.4 hPa | - | - | - | - |
| 1778169017 | 21.67° C | 59% | 1008.4 hPa | - | - | - | - |
| 1778167217 | 22.22° C | 57% | 1008.7 hPa | - | - | - | - |
| 1778165417 | 22.22° C | 58% | 1008.7 hPa | - | - | - | - |
| 1778163617 | 22.22° C | 57% | 1008.9 hPa | - | - | - | - |
| 1778161825 | 22.78° C | 58% | 1009.2 hPa | - | - | - | - |
| 1778161817 | 22.78° C | 58% | 1009.2 hPa | - | - | - | - |
| 1778160017 | 22.78° C | 59% | 1009.5 hPa | - | - | - | - |
| 1778158217 | 22.22° C | 59% | 1009.9 hPa | - | - | - | - |
| 1778156417 | 21.67° C | 63% | 1010.1 hPa | - | - | - | - |
| 1778154625 | 20.56° C | 65% | 1009.2 hPa | - | - | - | - |
| 1778154617 | 20.56° C | 65% | 1009.2 hPa | - | - | - | - |
| 1778152825 | 21.11° C | 65% | 1010.3 hPa | - | - | - | - |
| 1778152817 | 21.11° C | 65% | 1010.3 hPa | - | - | - | - |
| 1778152817 | 21.11° C | 65% | 1010.3 hPa | - | - | - | - |
| 1778151017 | 21.11° C | 69% | 1010.6 hPa | - | - | - | - |
| 1778149217 | 19.44° C | 73% | 1010.8 hPa | - | - | - | - |
| 1778147417 | 18.89° C | 78% | 1011.1 hPa | - | - | - | - |
| 1778145617 | 17.22° C | 84% | 1011 hPa | - | - | - | - |
| 1778143816 | 15.56° C | 87% | 1010.7 hPa | - | - | - | - |
| 1778142016 | 15° C | 87% | 1010.8 hPa | - | - | - | - |
| 1778140216 | 14.44° C | 88% | 1011 hPa | - | - | - | - |
| 1778138417 | 14.44° C | 90% | 1011 hPa | - | - | - | - |
| 1778138416 | 14.44° C | 90% | 1011 hPa | - | - | - | - |
| 1778136617 | 13.89° C | 92% | 1011 hPa | - | - | - | - |
* Rain since midnight (hover to see other rain measurements)
** Current wind speed in m/s (hover to see current wind gust speed)